»·PEaware :: N74KW KSEA-KEAT

N74KW :: KSEA-KEAT

FLIGHT INFORMATION

Flight Status: Arrived
Operator: Privately registered:
United States
More flights under this callsign
Pilot: Charles C. (26995)
Aircraft: MCDONNELL-DOUGLAS SKYTRAIN C-47
(DC3)
More flights by this aircraft type
Origin: KSEA Seattle-Tacoma Intl
United States
Destination: KEAT Pangborn Meml
United States
More flights between these airports :: More routes between these airports
Route: MONTN1 VAMPS V2 ELN V25 EAT
File this flight plan on PilotEdge
Remarks:
Altitude:
(Current/Filed)
9,000ft
Speed:
(Current/Filed)
150kts
Departed: 22-Aug-20 02:38 PM
Arrived: 22-Aug-20 03:38 PM
Distance/Time
Traveled:
85nm/0:59
Distance/Time
To Go:
Arrived

Flight Plot

Page will automatically refresh every two minutes.

Flight plan parsing failed; only flown route is shown


Map Options




Map Legend


Flown Route
Filed Route
Departure Airport
Arrival Airport
Navaid (VOR, NDB)
Fix

Horizontal Profiles

Position Reports

Time Latitude Longitude Heading Altitude Ground
Speed
22-Aug-20 14:22 47.460847 -122.303683 180 477ft 0kts
22-Aug-20 14:23 47.460847 -122.303683 180 477ft 0kts
22-Aug-20 14:24 47.460847 -122.303683 180 477ft 0kts
22-Aug-20 14:25 47.460847 -122.303683 180 477ft 0kts
22-Aug-20 14:26 47.460847 -122.303683 180 477ft 0kts
22-Aug-20 14:27 47.460847 -122.303683 180 477ft 0kts
22-Aug-20 14:28 47.460847 -122.303683 180 477ft 0kts
22-Aug-20 14:29 47.460847 -122.303683 180 477ft 0kts
22-Aug-20 14:30 47.460847 -122.303683 180 477ft 0kts
22-Aug-20 14:31 47.460847 -122.303683 180 477ft 0kts
22-Aug-20 14:32 47.460806 -122.303684 176 477ft 9kts
22-Aug-20 14:33 47.462375 -122.303841 287 477ft 4kts
22-Aug-20 14:34 47.457040 -122.305090 180 477ft 33kts
22-Aug-20 14:35 47.446962 -122.306323 183 477ft 37kts
22-Aug-20 14:36 47.443440 -122.306574 242 477ft 0kts
22-Aug-20 14:37 47.452762 -122.307989 358 488ft 106kts
22-Aug-20 14:38 47.483966 -122.305118 357 1514ft 103kts
22-Aug-20 14:39 47.512272 -122.312111 356 2306ft 106kts
22-Aug-20 14:40 47.541525 -122.316425 0 3221ft 106kts
22-Aug-20 14:41 47.571304 -122.318011 16 4091ft 105kts
22-Aug-20 14:42 47.580388 -122.275376 81 4737ft 122kts
22-Aug-20 14:43 47.574470 -122.228658 151 5413ft 127kts
22-Aug-20 14:44 47.544503 -122.198601 140 6009ft 132kts
22-Aug-20 14:45 47.515429 -122.163071 139 6657ft 136kts
22-Aug-20 14:46 47.486118 -122.126943 139 7314ft 136kts
22-Aug-20 14:47 47.456746 -122.090773 139 7961ft 138kts
22-Aug-20 14:48 47.437972 -122.067680 139 8376ft 138kts
22-Aug-20 14:49 47.408058 -122.030933 139 8924ft 144kts
22-Aug-20 14:50 47.375087 -121.992353 140 9259ft 156kts
22-Aug-20 14:51 47.354100 -121.929870 106 8997ft 174kts
22-Aug-20 14:52 47.339545 -121.862634 106 8998ft 170kts
22-Aug-20 14:53 47.325136 -121.796201 106 8998ft 169kts
22-Aug-20 14:54 47.310781 -121.730227 106 8998ft 168kts
22-Aug-20 14:55 47.296410 -121.664369 106 8998ft 168kts
22-Aug-20 14:56 47.282102 -121.598455 106 8998ft 168kts
22-Aug-20 14:57 47.267846 -121.533146 106 8998ft 168kts
22-Aug-20 14:58 47.253400 -121.467406 106 8998ft 168kts
22-Aug-20 14:59 47.238839 -121.401390 106 8998ft 168kts
22-Aug-20 15:00 47.224646 -121.337282 107 8998ft 168kts
22-Aug-20 15:01 47.210018 -121.271390 107 8998ft 168kts
22-Aug-20 15:02 47.195324 -121.205397 107 8998ft 168kts
22-Aug-20 15:03 47.180630 -121.139630 107 8998ft 168kts
22-Aug-20 15:04 47.165875 -121.073776 107 8998ft 168kts
22-Aug-20 15:05 47.151123 -121.008150 107 8991ft 169kts
22-Aug-20 15:06 47.136234 -120.942124 107 8989ft 170kts
22-Aug-20 15:07 47.121348 -120.876290 107 8989ft 170kts
22-Aug-20 15:08 47.106415 -120.810477 107 8989ft 170kts
22-Aug-20 15:09 47.096260 -120.766477 107 8989ft 170kts
22-Aug-20 15:10 47.081615 -120.704143 108 8626ft 187kts
22-Aug-20 15:11 47.079293 -120.694414 106 8612ft 185kts
22-Aug-20 15:12 47.076179 -120.680675 105 8605ft 183kts
22-Aug-20 15:13 47.065368 -120.633287 105 8603ft 178kts
22-Aug-20 15:14 47.049715 -120.565162 105 8605ft 174kts
22-Aug-20 15:15 47.037469 -120.512025 105 8605ft 173kts
22-Aug-20 15:17 47.039362 -120.451086 25 8615ft 160kts
22-Aug-20 15:18 47.080176 -120.423127 22 8609ft 161kts
22-Aug-20 15:19 47.093872 -120.369708 101 8606ft 171kts
22-Aug-20 15:20 47.082332 -120.302422 101 8605ft 171kts
22-Aug-20 15:21 47.089064 -120.238252 58 8605ft 165kts
22-Aug-20 15:22 47.112044 -120.178047 58 7972ft 180kts
22-Aug-20 15:23 47.137751 -120.111553 57 6745ft 190kts
22-Aug-20 15:24 47.160584 -120.051960 57 6694ft 145kts
22-Aug-20 15:25 47.178414 -120.004277 57 6697ft 122kts
22-Aug-20 15:26 47.194944 -119.959840 57 6706ft 130kts
22-Aug-20 15:27 47.212147 -119.914028 57 6697ft 120kts
22-Aug-20 15:28 47.240807 -119.905171 2 6219ft 127kts
22-Aug-20 15:29 47.269917 -119.930651 304 5132ft 136kts
22-Aug-20 15:30 47.290157 -119.974887 307 4064ft 126kts
22-Aug-20 15:31 47.308848 -120.015702 307 3388ft 100kts
22-Aug-20 15:32 47.322501 -120.045539 307 3514ft 94kts
22-Aug-20 15:33 47.337701 -120.079378 306 3507ft 100kts
22-Aug-20 15:34 47.351646 -120.108724 312 3495ft 77kts
22-Aug-20 15:34 47.362657 -120.134430 291 3049ft 100kts
22-Aug-20 15:36 47.377200 -120.177715 321 1798ft 96kts
22-Aug-20 15:37 47.394002 -120.200087 318 1258ft 62kts
22-Aug-20 15:37 47.399227 -120.204970 15 1257ft 3kts

Navigation Log

Ident Type
Flight plan parsing failed, navigation log unavailable